AQW weather

Harriman and West Airport
North Adams, Massachusetts, United States

Public forecast

Using degrees Fahrenheit for public forecast. Weather courtesy of forecast.io.

METAR (pilot weather report)

Retrieved 2019/07/21 01:44 UTC (0 seconds ago):

KAQW 210144Z AUTO VRB03KT 10SM -RA SCT048 BKN060 OVC095 23/21 A2989 RMK AO2 LTG DSNT SW-NW TSE15 P0000 T02330211

TAF (pilot weather forecast)

Forecast is more than 12 hours old.

Closest forecast is Pittsfield Municipal Airport, 17.0 nm (31.6 km) SSW. Retrieved 2019/07/20 00:39 UTC (1 day ago):

TAF KPSF 202336Z 2100/2124 27007KT P6SM FEW050 BKN250 TEMPO 2100/2103 3SM TSRA BR BKN025CB FM210300 25006KT P6SM FEW025 SCT060 SCT200 FM210800 28005KT 4SM BR BKN015 FM211500 28010KT P6SM SCT020 BKN040 FM211800 28012G20KT P6SM SCT040 SCT200